Terminal Aerodrome Forecast
Issued by NWS

Home | Current Version | Previous Version | Graphics & Text | Print | Product List | Glossary On
Versions: 1 2 3 4 5 6 7 8 9 10 11 12 13 14 15 16 17 18 19 20 21 22 23 24 25
465
FTUS43 KOAX 210733 AAA
TAFCDR
TAF AMD
KCDR 210733Z 2108/2206 14009KT 6SM -RA OVC025
     FM210900 09009KT P6SM -RA BKN007 OVC015
     FM211400 08010KT P6SM SCT015 OVC030
     FM211900 12014G20KT P6SM OVC150
     FM212200 11019KT P6SM OVC100
     FM220200 16021G28KT P6SM OVC050=

USA.gov is the U.S. government's official web portal to all federal, state and local government web resources and services.